Time;durP1;ratioP1;P1;durP2;ratioP2;P2;SDS_P1;SDS_P2;PMS_P1;PMS_P2;Temp;Humidity;BMP_temperature;BMP_pressure;BME280_temperature;BME280_humidity;BME280_pressure;Samples;Min_cycle;Max_cycle;Signal;HPM_P1;HPM_P2
2022/09/20 04:02:01;;;;;;;;;;;21.60;50.80;;;;;;5708417;23;20279;-75
2022/09/20 04:04:31;;;;;;;;;;;21.60;50.80;;;;;;5014787;28;19976;-74
2022/09/20 04:07:05;;;;;;;;;;;21.60;50.80;;;;;;5014809;28;19929;-73
2022/09/20 04:09:55;;;;;;;;;;;21.60;50.90;;;;;;5015051;28;20024;-75
2022/09/20 04:12:27;;;;;;;;;;;21.60;50.90;;;;;;5014915;28;20343;-75
2022/09/20 04:14:58;;;;;;;;;;;21.70;51.00;;;;;;5014460;28;19925;-73
2022/09/20 04:17:31;;;;;;;;;;;21.70;51.10;;;;;;5014992;28;19925;-73
2022/09/20 04:20:01;;;;;;;;;;;21.60;51.00;;;;;;5014577;28;20385;-73
2022/09/20 04:22:28;;;;;;;;;;;21.70;51.10;;;;;;5014318;28;19936;-74
2022/09/20 04:24:57;;;;;;;;;;;21.70;51.20;;;;;;5014760;28;20315;-73
2022/09/20 04:27:25;;;;;;;;;;;21.70;51.20;;;;;;5014648;28;19948;-73
2022/09/20 04:29:56;;;;;;;;;;;21.70;51.20;;;;;;5014701;28;20008;-73
2022/09/20 04:32:25;;;;;;;;;;;21.70;51.20;;;;;;5014917;28;19932;-73
2022/09/20 04:37:43;;;;;;;;;;;21.60;51.10;;;;;;5014634;28;19932;-73
2022/09/20 04:40:15;;;;;;;;;;;21.60;51.10;;;;;;5014661;28;19932;-73
2022/09/20 04:42:57;;;;;;;;;;;21.60;51.10;;;;;;5014456;28;19925;-73
2022/09/20 04:45:44;;;;;;;;;;;21.60;51.20;;;;;;5014564;28;19926;-74
2022/09/20 04:48:34;;;;;;;;;;;21.60;51.20;;;;;;5014471;28;19947;-75
2022/09/20 04:51:17;;;;;;;;;;;21.60;51.20;;;;;;5014136;28;19932;-74
2022/09/20 04:53:51;;;;;;;;;;;21.60;51.20;;;;;;5014145;28;20380;-73
2022/09/20 04:56:21;;;;;;;;;;;21.60;51.20;;;;;;5014113;28;19932;-74
2022/09/20 04:58:49;;;;;;;;;;;21.60;51.10;;;;;;5014098;28;20393;-74
2022/09/20 05:01:31;;;;;;;;;;;21.50;50.90;;;;;;5014318;28;19975;-74
2022/09/20 05:04:04;;;;;;;;;;;21.50;50.90;;;;;;5014019;28;19972;-73
2022/09/20 05:07:00;;;;;;;;;;;21.50;50.80;;;;;;5038294;23;19926;-76
2022/09/20 05:09:41;;;;;;;;;;;21.50;50.70;;;;;;5014581;28;19979;-76
2022/09/20 05:12:17;;;;;;;;;;;21.50;50.60;;;;;;5011896;28;20024;-74
2022/09/20 05:14:54;;;;;;;;;;;21.40;50.30;;;;;;5014185;28;19925;-76
2022/09/20 05:17:25;;;;;;;;;;;21.40;50.10;;;;;;5014701;28;19948;-76
2022/09/20 05:20:04;;;;;;;;;;;21.40;50.00;;;;;;5014612;28;19930;-76
2022/09/20 05:22:52;;;;;;;;;;;21.40;49.80;;;;;;5014600;28;19932;-76
2022/09/20 05:25:30;;;;;;;;;;;21.40;49.70;;;;;;5014544;28;20024;-76
2022/09/20 05:27:58;;;;;;;;;;;21.30;49.40;;;;;;5018333;28;19931;-77
2022/09/20 05:30:32;;;;;;;;;;;21.30;49.30;;;;;;5018431;28;20031;-77
2022/09/20 05:33:04;;;;;;;;;;;21.30;49.20;;;;;;5018526;28;19925;-77
2022/09/20 05:35:37;;;;;;;;;;;21.30;49.00;;;;;;5018613;28;19965;-77
2022/09/20 05:38:09;;;;;;;;;;;21.30;48.90;;;;;;5018381;28;19961;-77
2022/09/20 05:40:45;;;;;;;;;;;21.30;48.70;;;;;;5018201;28;20388;-77
2022/09/20 05:43:13;;;;;;;;;;;21.30;48.60;;;;;;5018117;28;20400;-77
2022/09/20 05:45:47;;;;;;;;;;;21.30;48.40;;;;;;5018109;28;19969;-77
2022/09/20 05:48:14;;;;;;;;;;;21.30;48.20;;;;;;5017940;28;20012;-77
2022/09/20 05:50:46;;;;;;;;;;;21.30;48.20;;;;;;5017827;28;19932;-77
2022/09/20 05:53:31;;;;;;;;;;;21.30;48.20;;;;;;5017846;28;19929;-77
2022/09/20 05:56:06;;;;;;;;;;;21.30;48.20;;;;;;5018093;28;19925;-77
2022/09/20 05:58:44;;;;;;;;;;;21.30;48.20;;;;;;5017723;28;20464;-75
2022/09/20 06:01:14;;;;;;;;;;;21.30;48.20;;;;;;5017542;28;19925;-75
2022/09/20 06:03:44;;;;;;;;;;;21.30;48.10;;;;;;5017325;28;20024;-75
2022/09/20 06:06:14;;;;;;;;;;;21.30;48.00;;;;;;5017235;28;19929;-75
2022/09/20 06:08:57;;;;;;;;;;;21.30;47.80;;;;;;5017227;28;20296;-75
2022/09/20 06:11:43;;;;;;;;;;;21.30;47.70;;;;;;5016815;28;19925;-76
2022/09/20 06:14:15;;;;;;;;;;;21.30;47.60;;;;;;5016908;28;20027;-74
2022/09/20 06:16:46;;;;;;;;;;;21.30;47.50;;;;;;5017092;28;19936;-74
2022/09/20 06:19:18;;;;;;;;;;;21.30;47.40;;;;;;5016679;28;19926;-74
2022/09/20 06:21:50;;;;;;;;;;;21.30;47.40;;;;;;5016865;28;19926;-74
2022/09/20 06:24:26;;;;;;;;;;;21.30;47.30;;;;;;5016926;28;20042;-74
2022/09/20 06:26:55;;;;;;;;;;;21.30;47.30;;;;;;5016846;28;19930;-75
2022/09/20 06:29:27;;;;;;;;;;;21.30;47.20;;;;;;5016703;28;19926;-74
2022/09/20 10:33:00;;;;;;;;;;;21.30;47.60;;;;;;5852291;23;19925;-77
2022/09/20 10:35:31;;;;;;;;;;;21.30;47.60;;;;;;5025101;28;19939;-80
2022/09/20 10:38:15;;;;;;;;;;;21.30;47.60;;;;;;5026855;28;19932;-80
2022/09/20 10:43:40;;;;;;;;;;;21.30;47.70;;;;;;5027801;28;19988;-80
2022/09/20 10:46:12;;;;;;;;;;;21.30;47.70;;;;;;5052280;22;20024;-76
2022/09/20 10:48:41;;;;;;;;;;;21.30;47.80;;;;;;5016274;28;20402;-75
2022/09/20 10:51:13;;;;;;;;;;;21.30;47.80;;;;;;5016529;28;19926;-75
2022/09/20 10:53:42;;;;;;;;;;;21.30;47.90;;;;;;5016624;28;19933;-75
2022/09/20 10:56:16;;;;;;;;;;;21.30;47.90;;;;;;5016418;28;19932;-76
2022/09/20 10:59:02;;;;;;;;;;;21.30;47.70;;;;;;5016386;28;19925;-74
2022/09/20 11:01:33;;;;;;;;;;;21.30;47.40;;;;;;5017183;28;19926;-79
2022/09/20 11:04:20;;;;;;;;;;;21.20;47.00;;;;;;5018973;28;20400;-80
2022/09/20 11:06:51;;;;;;;;;;;21.10;46.70;;;;;;5012267;28;20266;-77
2022/09/20 11:09:21;;;;;;;;;;;21.00;46.10;;;;;;5015987;28;20292;-77
2022/09/20 11:11:50;;;;;;;;;;;20.90;46.10;;;;;;5016299;28;19968;-77
2022/09/20 11:14:20;;;;;;;;;;;21.00;46.10;;;;;;5015775;28;19925;-76
2022/09/20 11:16:50;;;;;;;;;;;21.00;46.10;;;;;;5015906;28;19925;-76
2022/09/20 11:19:22;;;;;;;;;;;21.00;46.00;;;;;;5015975;28;20012;-76
2022/09/20 11:21:52;;;;;;;;;;;21.00;46.00;;;;;;5015636;28;20367;-73
2022/09/20 11:24:27;;;;;;;;;;;21.10;45.90;;;;;;5015843;28;19932;-74
2022/09/20 11:26:55;;;;;;;;;;;21.10;45.90;;;;;;5015776;28;19926;-74
2022/09/20 11:29:26;;;;;;;;;;;21.10;45.80;;;;;;5015830;28;19947;-74
2022/09/20 11:31:55;;;;;;;;;;;21.10;45.70;;;;;;5015798;28;19926;-74
2022/09/20 11:34:25;;;;;;;;;;;21.20;45.70;;;;;;5015926;28;20288;-75
2022/09/20 11:36:57;;;;;;;;;;;21.10;45.60;;;;;;5015731;28;19925;-75
2022/09/20 11:39:27;;;;;;;;;;;21.20;45.60;;;;;;5015712;28;19932;-74
2022/09/20 11:41:55;;;;;;;;;;;21.20;45.50;;;;;;5015254;28;19925;-75
2022/09/20 14:11:39;;;;;;;;;;;21.40;43.70;;;;;;4999131;28;19925;-79
2022/09/20 14:14:07;;;;;;;;;;;21.40;43.80;;;;;;5000054;28;20435;-79
2022/09/20 14:16:37;;;;;;;;;;;21.40;43.70;;;;;;4999916;28;19933;-79
2022/09/20 14:19:06;;;;;;;;;;;21.40;43.70;;;;;;5000232;28;19977;-79
2022/09/20 14:21:33;;;;;;;;;;;21.40;43.70;;;;;;5000498;28;19953;-79
2022/09/20 14:24:02;;;;;;;;;;;21.40;43.70;;;;;;4999771;28;19925;-79
2022/09/20 14:26:32;;;;;;;;;;;21.40;43.70;;;;;;4999652;28;19926;-79
2022/09/20 14:29:13;;;;;;;;;;;21.40;43.70;;;;;;4999667;28;20337;-79
2022/09/20 14:31:44;;;;;;;;;;;21.40;43.70;;;;;;4999244;28;20012;-78
2022/09/20 14:34:12;;;;;;;;;;;21.40;43.80;;;;;;4999420;28;19933;-79
2022/09/20 14:36:39;;;;;;;;;;;21.40;43.70;;;;;;4999432;28;19930;-79
2022/09/20 14:39:12;;;;;;;;;;;21.40;43.70;;;;;;5003191;28;19980;-79
2022/09/20 14:41:39;;;;;;;;;;;21.40;43.60;;;;;;5005076;28;20449;-79
2022/09/20 14:44:17;;;;;;;;;;;21.40;43.60;;;;;;4999148;28;19930;-79
2022/09/20 14:46:45;;;;;;;;;;;21.40;43.60;;;;;;4999491;28;19965;-79
2022/09/20 14:49:30;;;;;;;;;;;21.40;43.60;;;;;;5004426;28;19973;-79
2022/09/20 14:52:12;;;;;;;;;;;21.40;43.60;;;;;;5002207;28;20008;-77
2022/09/20 14:54:40;;;;;;;;;;;21.40;43.60;;;;;;4997000;28;20020;-74
2022/09/20 14:57:06;;;;;;;;;;;21.40;43.60;;;;;;4996549;28;20369;-78
2022/09/20 14:59:36;;;;;;;;;;;21.40;43.60;;;;;;4997139;28;19926;-77
2022/09/20 15:02:11;;;;;;;;;;;21.40;43.60;;;;;;5037538;23;19932;-76
2022/09/20 15:04:39;;;;;;;;;;;21.30;43.50;;;;;;5016294;28;20024;-76
2022/09/20 15:07:07;;;;;;;;;;;21.40;43.60;;;;;;5016500;28;19926;-76
2022/09/20 15:09:34;;;;;;;;;;;21.40;43.60;;;;;;5016260;28;19925;-76
2022/09/20 15:12:01;;;;;;;;;;;21.40;43.60;;;;;;5016123;28;19925;-76
2022/09/20 15:14:28;;;;;;;;;;;21.40;43.60;;;;;;5016120;28;20076;-76
2022/09/20 15:16:55;;;;;;;;;;;21.40;43.60;;;;;;5016086;28;19971;-76
2022/09/20 15:19:23;;;;;;;;;;;21.40;43.60;;;;;;5016007;28;19931;-75
2022/09/20 15:21:49;;;;;;;;;;;21.40;43.60;;;;;;5015940;28;19925;-75
2022/09/20 15:24:17;;;;;;;;;;;21.30;43.60;;;;;;5015892;28;19977;-76
2022/09/20 15:26:44;;;;;;;;;;;21.40;43.70;;;;;;5015717;28;20031;-76
2022/09/20 15:29:13;;;;;;;;;;;21.40;43.70;;;;;;5015993;28;19925;-78
2022/09/20 15:31:40;;;;;;;;;;;21.30;43.60;;;;;;5015805;28;19925;-76
2022/09/20 15:34:07;;;;;;;;;;;21.40;43.70;;;;;;5015531;28;20418;-77
2022/09/20 15:36:35;;;;;;;;;;;21.30;43.60;;;;;;5015706;28;19960;-77
2022/09/20 15:39:02;;;;;;;;;;;21.30;43.70;;;;;;5015411;28;20381;-77
2022/09/20 15:41:28;;;;;;;;;;;21.30;43.70;;;;;;5015547;28;19926;-77
2022/09/20 15:43:55;;;;;;;;;;;21.30;43.70;;;;;;5015563;28;19932;-77
2022/09/20 15:46:25;;;;;;;;;;;21.40;43.80;;;;;;5015603;28;19964;-77
2022/09/20 15:48:52;;;;;;;;;;;21.40;43.80;;;;;;5015804;28;19926;-77
2022/09/20 15:51:19;;;;;;;;;;;21.30;43.70;;;;;;5016294;28;20004;-77
2022/09/20 15:53:54;;;;;;;;;;;21.40;43.80;;;;;;5015448;28;19925;-77
2022/09/20 15:56:21;;;;;;;;;;;21.40;43.80;;;;;;5015388;28;19971;-76
2022/09/20 15:58:49;;;;;;;;;;;21.40;43.80;;;;;;5014936;28;20411;-76
2022/09/20 16:01:16;;;;;;;;;;;21.40;43.80;;;;;;5015165;28;19926;-76
2022/09/20 16:03:43;;;;;;;;;;;21.40;43.90;;;;;;5014855;28;19932;-76
2022/09/20 16:06:10;;;;;;;;;;;21.40;43.90;;;;;;5015488;28;19932;-76
2022/09/20 16:08:38;;;;;;;;;;;21.40;43.90;;;;;;5015255;28;19932;-76
2022/09/20 16:11:06;;;;;;;;;;;21.40;43.90;;;;;;5015755;28;20020;-76
2022/09/20 16:13:35;;;;;;;;;;;21.40;43.90;;;;;;5014913;28;20020;-76
2022/09/20 16:16:02;;;;;;;;;;;21.40;43.90;;;;;;5014955;28;19925;-76
2022/09/20 16:23:39;;;;;;;;;;;21.30;43.50;;;;;;5112654;27;19913;-76
2022/09/20 16:26:06;;;;;;;;;;;21.10;44.30;;;;;;5112490;28;19941;-77
2022/09/20 16:28:33;;;;;;;;;;;21.20;44.50;;;;;;5112611;28;19930;-76
2022/09/20 16:31:00;;;;;;;;;;;21.20;44.40;;;;;;5113985;28;19963;-76
2022/09/20 16:33:27;;;;;;;;;;;21.30;44.40;;;;;;5112456;28;20473;-76
2022/09/20 16:35:54;;;;;;;;;;;21.30;44.40;;;;;;5111814;28;20394;-77
2022/09/20 16:38:20;;;;;;;;;;;21.30;44.40;;;;;;5111728;28;19924;-77
2022/09/20 16:40:50;;;;;;;;;;;21.30;44.40;;;;;;5111370;28;20319;-76
2022/09/20 16:43:24;;;;;;;;;;;21.40;44.50;;;;;;5111647;28;20343;-77
2022/09/20 16:45:58;;;;;;;;;;;21.40;44.50;;;;;;5111664;28;19924;-77
2022/09/20 16:48:26;;;;;;;;;;;21.40;44.50;;;;;;5111608;28;19931;-77
2022/09/20 16:50:54;;;;;;;;;;;21.40;44.60;;;;;;5111946;28;20022;-76
2022/09/20 16:53:20;;;;;;;;;;;21.40;44.60;;;;;;5111213;28;20293;-77
2022/09/20 16:55:48;;;;;;;;;;;21.50;44.70;;;;;;5112300;28;20351;-78
2022/09/20 16:58:15;;;;;;;;;;;21.50;44.70;;;;;;5113022;28;19924;-76
2022/09/20 17:00:42;;;;;;;;;;;21.40;44.70;;;;;;5112020;28;19924;-77
2022/09/20 17:03:11;;;;;;;;;;;21.50;44.80;;;;;;5111846;28;19924;-76
2022/09/20 17:05:38;;;;;;;;;;;21.40;44.80;;;;;;5112066;28;20473;-76
2022/09/20 17:08:05;;;;;;;;;;;21.50;44.90;;;;;;5112413;28;20022;-76
2022/09/20 17:10:32;;;;;;;;;;;21.50;44.90;;;;;;5112620;28;19955;-77
2022/09/20 17:13:01;;;;;;;;;;;21.50;44.90;;;;;;5113207;28;20015;-77
2022/09/20 17:15:28;;;;;;;;;;;21.50;45.00;;;;;;5113348;28;19930;-77
2022/09/20 17:17:56;;;;;;;;;;;21.50;45.10;;;;;;5112299;28;20011;-78
2022/09/20 17:20:25;;;;;;;;;;;21.50;45.10;;;;;;5112159;28;19924;-77
2022/09/20 17:22:53;;;;;;;;;;;21.50;45.10;;;;;;5125483;28;19924;-77
2022/09/20 17:25:20;;;;;;;;;;;21.50;45.20;;;;;;5133103;28;19928;-76
2022/09/20 17:27:50;;;;;;;;;;;21.50;45.20;;;;;;5133102;28;19988;-76
2022/09/20 17:30:18;;;;;;;;;;;21.50;45.30;;;;;;5131846;28;19923;-77
2022/09/20 17:32:46;;;;;;;;;;;21.50;45.30;;;;;;5131868;28;19924;-78
2022/09/20 17:35:23;;;;;;;;;;;21.50;45.40;;;;;;5116967;28;19924;-76
2022/09/20 17:41:05;;;;;;;;;;;21.50;45.50;;;;;;5105372;28;20370;-77
2022/09/20 17:43:47;;;;;;;;;;;21.50;45.50;;;;;;5107321;28;20355;-76
2022/09/20 17:46:24;;;;;;;;;;;21.50;45.60;;;;;;5117773;28;19923;-76
2022/09/20 17:51:56;;;;;;;;;;;21.50;45.80;;;;;;5116478;28;19924;-76
2022/09/20 17:54:41;;;;;;;;;;;21.50;45.90;;;;;;5118619;28;19924;-76
2022/09/20 17:57:20;;;;;;;;;;;21.50;46.00;;;;;;5117329;28;19931;-76
2022/09/20 18:00:07;;;;;;;;;;;21.50;46.10;;;;;;5117924;28;19923;-76
2022/09/20 18:02:35;;;;;;;;;;;21.50;46.10;;;;;;5118547;28;19971;-77
2022/09/20 18:05:02;;;;;;;;;;;21.50;46.20;;;;;;5118137;28;19930;-76
2022/09/20 18:07:31;;;;;;;;;;;21.50;46.30;;;;;;5118091;28;19974;-77
2022/09/20 18:09:58;;;;;;;;;;;21.50;46.40;;;;;;5118521;28;19923;-77
2022/09/20 18:12:25;;;;;;;;;;;21.50;46.40;;;;;;5118160;28;19924;-77
2022/09/20 18:14:52;;;;;;;;;;;21.50;46.60;;;;;;5117923;28;19959;-77
2022/09/20 18:17:19;;;;;;;;;;;21.60;46.80;;;;;;5117816;28;19923;-77
2022/09/20 18:19:47;;;;;;;;;;;21.50;46.70;;;;;;5117976;28;19974;-76
2022/09/20 18:22:14;;;;;;;;;;;21.60;46.90;;;;;;5117377;28;19924;-77
2022/09/20 18:24:41;;;;;;;;;;;21.60;47.00;;;;;;5117953;28;19927;-77
2022/09/20 18:27:08;;;;;;;;;;;21.60;47.20;;;;;;5118062;28;19967;-77
2022/09/20 18:29:36;;;;;;;;;;;21.60;47.20;;;;;;5117684;28;19923;-77
2022/09/20 18:32:03;;;;;;;;;;;21.60;47.30;;;;;;5117156;28;19923;-77
2022/09/20 18:34:30;;;;;;;;;;;21.60;47.40;;;;;;5117820;28;19930;-77
2022/09/20 18:37:00;;;;;;;;;;;21.60;47.50;;;;;;5117250;28;19924;-77
2022/09/20 18:39:27;;;;;;;;;;;21.60;47.60;;;;;;5117256;28;20438;-77
2022/09/20 18:41:54;;;;;;;;;;;21.60;47.70;;;;;;5117421;28;19930;-77
2022/09/20 18:44:21;;;;;;;;;;;21.60;47.80;;;;;;5117224;27;19934;-76
2022/09/20 18:46:49;;;;;;;;;;;21.60;48.00;;;;;;5116036;28;19923;-77
2022/09/20 18:49:16;;;;;;;;;;;21.60;48.10;;;;;;5117132;28;20356;-77
2022/09/20 18:51:43;;;;;;;;;;;21.60;48.20;;;;;;5117479;28;19923;-79
2022/09/20 18:54:11;;;;;;;;;;;21.60;48.50;;;;;;5118004;28;20371;-78
2022/09/20 18:56:39;;;;;;;;;;;21.60;48.50;;;;;;5117333;28;19923;-78
2022/09/20 18:59:07;;;;;;;;;;;21.60;48.50;;;;;;5116871;28;19967;-76
2022/09/20 19:01:43;;;;;;;;;;;21.60;48.50;;;;;;5117524;28;20437;-76
2022/09/20 19:04:17;;;;;;;;;;;21.60;48.50;;;;;;5117147;28;19946;-76
2022/09/20 19:06:46;;;;;;;;;;;21.60;48.50;;;;;;5117058;28;19946;-77
2022/09/20 19:09:17;;;;;;;;;;;21.60;48.50;;;;;;5116830;28;20370;-77
2022/09/20 19:11:47;;;;;;;;;;;21.60;48.60;;;;;;5116802;28;20011;-76
2022/09/20 19:14:19;;;;;;;;;;;21.60;48.80;;;;;;5116936;28;19927;-76
2022/09/20 19:16:49;;;;;;;;;;;21.60;48.90;;;;;;5116636;28;20010;-76
2022/09/20 19:19:25;;;;;;;;;;;21.60;49.10;;;;;;5116606;28;19924;-76
2022/09/20 19:21:57;;;;;;;;;;;21.60;49.20;;;;;;5117559;28;19924;-76
2022/09/20 19:24:31;;;;;;;;;;;21.60;49.30;;;;;;5118094;28;19924;-76
2022/09/20 19:26:58;;;;;;;;;;;21.60;49.40;;;;;;5117642;28;20014;-76
2022/09/20 19:29:26;;;;;;;;;;;21.60;49.40;;;;;;5115674;28;19930;-76
2022/09/20 19:31:54;;;;;;;;;;;21.60;49.50;;;;;;5115161;28;19963;-76
2022/09/20 19:34:22;;;;;;;;;;;21.60;49.60;;;;;;5115201;28;19936;-77
2022/09/20 19:36:53;;;;;;;;;;;21.60;49.70;;;;;;5115073;28;19930;-77
2022/09/20 19:39:23;;;;;;;;;;;21.60;49.80;;;;;;5114801;28;20442;-77
2022/09/20 19:41:56;;;;;;;;;;;21.60;49.80;;;;;;5115007;28;19924;-77
2022/09/20 19:44:32;;;;;;;;;;;21.60;49.90;;;;;;5114982;28;19975;-77
2022/09/20 19:47:05;;;;;;;;;;;21.60;50.00;;;;;;5114668;28;20333;-78
2022/09/20 19:49:38;;;;;;;;;;;21.60;50.00;;;;;;5115243;28;20450;-78
2022/09/20 19:52:05;;;;;;;;;;;21.60;50.10;;;;;;5114850;28;20044;-77
2022/09/20 19:54:32;;;;;;;;;;;21.60;50.10;;;;;;5114551;28;20383;-77
2022/09/20 19:57:01;;;;;;;;;;;21.60;50.20;;;;;;5114797;28;19923;-79
2022/09/20 19:59:27;;;;;;;;;;;21.60;50.20;;;;;;5114723;28;19945;-78
2022/09/20 20:01:55;;;;;;;;;;;21.60;50.20;;;;;;5115108;28;19963;-79
2022/09/20 20:04:22;;;;;;;;;;;21.60;50.30;;;;;;5114639;28;20030;-78
2022/09/20 20:06:54;;;;;;;;;;;21.60;50.30;;;;;;5114724;28;20357;-78
2022/09/20 20:09:25;;;;;;;;;;;21.50;50.30;;;;;;5114407;28;19924;-78
2022/09/20 20:11:55;;;;;;;;;;;21.50;50.30;;;;;;5114663;28;19928;-78
2022/09/20 20:14:28;;;;;;;;;;;21.50;50.30;;;;;;5114306;28;20014;-78
2022/09/20 20:17:00;;;;;;;;;;;21.50;50.40;;;;;;5114240;28;19923;-78
2022/09/20 20:19:34;;;;;;;;;;;21.50;50.40;;;;;;5114537;28;19934;-77
2022/09/20 20:22:04;;;;;;;;;;;21.50;50.50;;;;;;5114104;28;19930;-77
2022/09/20 20:24:32;;;;;;;;;;;21.50;50.50;;;;;;5114162;28;20367;-78
2022/09/20 20:26:59;;;;;;;;;;;21.50;50.50;;;;;;5114452;28;20015;-77
2022/09/20 20:29:27;;;;;;;;;;;21.50;50.60;;;;;;5114495;28;20019;-77
2022/09/20 20:31:54;;;;;;;;;;;21.50;50.60;;;;;;5114090;28;19923;-78
2022/09/20 20:34:20;;;;;;;;;;;21.50;50.60;;;;;;5114032;28;20018;-78
2022/09/20 20:36:48;;;;;;;;;;;21.50;50.60;;;;;;5114137;28;19970;-78
2022/09/20 20:39:14;;;;;;;;;;;21.50;50.70;;;;;;5114501;28;19924;-78
2022/09/20 20:41:41;;;;;;;;;;;21.50;50.70;;;;;;5114011;28;20434;-78
2022/09/20 20:44:08;;;;;;;;;;;21.50;51.30;;;;;;5114357;28;19924;-79
2022/09/20 20:46:36;;;;;;;;;;;21.50;50.80;;;;;;5114327;28;19957;-79
2022/09/20 20:49:03;;;;;;;;;;;21.50;50.80;;;;;;5114532;28;19927;-80
2022/09/20 20:51:31;;;;;;;;;;;21.40;50.80;;;;;;5120513;28;19924;-80
2022/09/20 20:53:58;;;;;;;;;;;21.40;50.80;;;;;;5119998;28;19924;-80
2022/09/20 20:56:26;;;;;;;;;;;21.40;50.90;;;;;;5119684;28;19924;-80
2022/09/20 20:58:53;;;;;;;;;;;21.40;50.90;;;;;;5119088;28;19924;-80
2022/09/20 21:01:20;;;;;;;;;;;21.40;50.90;;;;;;5130411;22;20015;-74
2022/09/20 21:03:49;;;;;;;;;;;21.40;51.00;;;;;;5093412;28;20369;-74
2022/09/20 21:06:16;;;;;;;;;;;21.40;51.00;;;;;;5093734;28;19931;-74
2022/09/20 21:08:43;;;;;;;;;;;21.40;51.00;;;;;;5094687;28;19930;-75
2022/09/20 21:11:11;;;;;;;;;;;21.40;51.10;;;;;;5097163;28;20007;-75
